Latest Weather Observations for Minlaton Airport

IDS60801

Issued at 12:31 pm CST Saturday 1 August 2015 (issued every 30 minutes, with the page automatically refreshed every 10 minutes)

About weather observations | Map of weather stations | Latest weather observations for SA | Other Formats
Station Details ID: 022031 Name: MINLATON AERO Lat: -34.75 Lon: 137.53 Height: 32.0 m
Data from the previous 72 hours. | See also: Recent months at Minlaton Airport
Date/Time
CST
Temp
°C
App
Temp
°C
Dew
Point
Rel
Hum
%
Delta-T
°C
Wind Press
QNH
hPa
Press
MSL
hPa
Rain
since 9 am
mm
Dir
 
Spd
km/h
Gust
km/h
Spd
kts
Gust
kts
01/12:30pm 10.7 8.0 8.8 88 0.9 SSW 13 19 7 10 1018.0 1018.0 1.0
01/12:00pm 10.8 8.0 8.6 86 1.1 S 13 19 7 10 1018.7 1018.7 0.6
01/11:30am 10.9 7.9 9.3 90 0.8 SSE 15 20 8 11 1017.4 1017.4 0.6
01/11:00am 10.7 8.0 9.1 90 0.8 WSW 13 15 7 8 1019.2 1019.2 0.4
01/10:57am 10.7 8.0 9.1 90 0.8 SW 13 15 7 8 1019.4 1019.4 0.2
01/10:30am 10.6 8.0 9.2 91 0.7 SSE 13 17 7 9 1017.4 1017.4 0.2
01/10:00am 10.2 6.8 9.0 92 0.6 ESE 17 22 9 12 1016.3 1016.3 0.2
01/09:30am 10.3 7.7 9.2 93 0.5 SSE 13 17 7 9 1017.2 1017.2 0.0
01/09:00am 10.1 7.4 9.0 93 0.5 SSE 13 20 7 11 1017.2 1017.2 4.0
01/08:30am 10.1 7.0 9.0 93 0.5 S 15 20 8 11 1017.3 1017.3 3.4
01/08:24am 10.2 6.8 9.1 93 0.5 S 17 20 9 11 1017.4 1017.4 3.4
01/08:00am 10.1 6.3 9.2 94 0.4 SSE 19 24 10 13 1015.4 1015.4 3.4
01/07:30am 10.1 6.7 9.3 95 0.4 SSE 17 24 9 13 1016.0 1016.0 3.0
01/07:00am 10.5 7.2 9.6 94 0.5 S 17 20 9 11 1015.7 1015.7 2.2
01/06:30am 10.8 9.7 9.9 94 0.5 WSW 6 11 3 6 1015.4 1015.4 1.4
01/06:00am 10.9 10.1 9.8 93 0.6 SSW 4 6 2 3 1014.5 1014.5 1.2
01/05:30am 10.9 9.8 9.8 93 0.6 SSW 6 7 3 4 1014.1 1014.1 1.2
01/05:00am 11.0 9.3 9.9 93 0.6 SSW 9 13 5 7 1013.8 1013.8 1.2
01/04:30am 11.0 8.1 9.8 92 0.6 SSW 15 17 8 9 1013.6 1013.6 1.2
01/04:00am 11.0 7.2 9.8 92 0.6 SSW 20 28 11 15 1013.3 1013.3 1.2
01/03:51am 11.0 5.7 9.9 93 0.6 SSW 28 46 15 25 1013.0 1013.0 1.2
01/03:30am 13.1 8.9 12.5 96 0.3 WNW 26 32 14 17 1012.5 1012.5 1.2
01/03:00am 13.1 8.9 12.3 95 0.4 NW 26 32 14 17 1012.4 1012.4 1.2
01/02:30am 12.9 8.2 12.0 94 0.5 NNW 28 35 15 19 1012.7 1012.7 1.2
01/02:00am 13.0 8.7 11.9 93 0.6 NNW 26 30 14 16 1012.8 1012.8 1.0
01/01:30am 13.0 9.4 11.7 92 0.7 NNW 22 28 12 15 1012.9 1012.9 0.2
01/01:00am 13.2 9.1 11.6 90 0.9 NNW 24 28 13 15 1012.8 1012.8 0.0
01/12:30am 13.2 8.8 11.6 90 0.9 NNW 26 35 14 19 1012.7 1012.7 0.0
01/12:00am 13.3 8.5 11.7 90 0.9 NNW 28 33 15 18 1013.0 1013.0 0.0
 
Date/Time
CST
Temp
°C
App
Temp
°C
Dew
Point
Rel
Hum
%
Delta-T
°C
Wind Press
QNH
hPa
Press
MSL
hPa
Rain
since 9 am
mm
Dir
 
Spd
km/h
Gust
km/h
Spd
kts
Gust
kts
31/11:30pm 13.2 7.9 11.4 89 1.0 NNW 30 37 16 20 1013.1 1013.1 0.0
31/11:00pm 13.0 8.0 11.1 88 1.0 NNW 28 35 15 19 1013.3 1013.3 0.0
31/10:30pm 12.8 8.2 11.2 90 0.8 NNW 26 32 14 17 1013.5 1013.5 0.0
31/10:00pm 13.0 9.1 10.7 86 1.2 NNW 22 28 12 15 1013.7 1013.7 0.0
31/09:30pm 12.9 8.6 10.6 86 1.2 NNW 24 30 13 16 1013.7 1013.7 0.0
31/09:00pm 13.1 8.2 10.1 82 1.5 N 26 32 14 17 1013.7 1013.7 0.0
31/08:30pm 12.5 9.6 9.7 83 1.4 N 15 19 8 10 1014.2 1014.2 0.0
31/08:00pm 12.3 9.5 9.9 85 1.2 N 15 17 8 9 1014.0 1014.0 0.0
31/07:30pm 12.4 9.2 9.8 84 1.3 NNE 17 19 9 10 1013.9 1013.9 0.0
31/07:00pm 12.1 9.2 9.7 85 1.2 NNE 15 17 8 9 1014.0 1014.0 0.0
31/06:30pm 11.9 9.3 9.5 85 1.2 N 13 15 7 8 1014.0 1014.0 0.0
31/06:00pm 12.4 9.4 9.4 82 1.5 N 15 17 8 9 1014.1 1014.1 0.0
31/05:30pm 13.2 9.9 9.5 78 1.9 N 17 20 9 11 1014.1 1014.1 0.0
31/05:00pm 13.7 9.8 9.4 75 2.2 N 20 24 11 13 1014.2 1014.2 0.0
31/04:30pm 13.9 10.0 9.3 74 2.3 N 20 26 11 14 1014.6 1014.6 0.0
31/04:00pm 14.1 9.1 9.5 74 2.4 N 26 32 14 17 1014.6 1014.6 0.0
31/03:30pm 14.9 11.0 10.7 76 2.2 NNW 22 28 12 15 1015.2 1015.2 0.0
31/03:00pm 13.7 9.7 10.5 81 1.7 NNW 22 28 12 15 1015.6 1015.6 0.0
31/02:30pm 13.8 8.5 9.8 77 2.1 NNW 28 33 15 18 1016.0 1016.0 0.0
31/02:00pm 14.6 8.5 9.8 73 2.5 NNW 32 39 17 21 1016.2 1016.2 0.0
31/01:30pm 14.8 9.1 9.8 72 2.6 NNW 30 35 16 19 1016.6 1016.6 0.0
31/01:00pm 14.1 8.4 9.7 75 2.3 NNW 30 39 16 21 1017.4 1017.4 0.0
31/12:30pm 14.5 9.2 9.7 73 2.5 NNW 28 33 15 18 1017.9 1017.9 0.0
31/12:00pm 14.6 10.0 8.1 65 3.2 N 22 32 12 17 1018.7 1018.7 0.0
31/11:30am 13.4 8.6 7.4 67 2.9 NNW 22 26 12 14 1019.3 1019.4 0.0
31/11:00am 13.5 9.6 7.3 66 3.0 N 17 22 9 12 1019.8 1019.9 0.0
31/10:30am 13.0 9.9 7.2 68 2.8 NNE 13 17 7 9 1020.1 1020.2 0.0
31/10:00am 12.0 8.5 7.3 73 2.3 NE 15 17 8 9 1020.4 1020.5 0.0
31/09:30am 11.4 7.9 7.1 75 2.1 ENE 15 17 8 9 1020.8 1020.9 0.0
31/09:00am 9.3 6.0 6.2 81 1.4 E 13 15 7 8 1021.3 1021.4 0.0
31/08:30am 8.1 4.2 5.4 83 1.2 ENE 15 17 8 9 1021.3 1021.4 0.0
31/08:00am 6.6 2.8 4.1 84 1.1 ENE 13 15 7 8 1021.3 1021.4 0.0
31/07:30am 4.7 -0.1 2.4 85 0.9 E 17 19 9 10 1021.3 1021.4 0.0
31/07:00am 4.9 0.4 2.3 83 1.0 E 15 17 8 9 1021.2 1021.3 0.0
31/06:30am 4.1 -1.2 2.0 86 0.8 E 19 20 10 11 1021.3 1021.4 0.0
31/06:00am 4.4 -0.5 2.3 86 0.8 E 17 17 9 9 1021.1 1021.2 0.0
31/05:30am 4.3 -0.2 2.2 86 0.8 E 15 17 8 9 1021.2 1021.3 0.0
31/05:00am 3.5 -1.4 2.0 90 0.6 E 17 17 9 9 1021.2 1021.3 0.0
31/04:30am 3.2 -1.7 1.7 90 0.6 E 17 19 9 10 1021.0 1021.1 0.0
31/04:00am 3.5 -1.4 2.0 90 0.6 ESE 17 19 9 10 1021.2 1021.3 0.0
31/03:30am 3.6 -1.3 2.0 89 0.6 SE 17 19 9 10 1021.4 1021.5 0.0
31/03:00am 4.5 -0.3 2.8 89 0.7 ESE 17 17 9 9 1021.5 1021.6 0.0
31/02:30am 5.4 1.0 2.6 82 1.1 SE 15 20 8 11 1021.6 1021.7 0.0
31/02:00am 6.5 1.3 3.8 83 1.1 SSE 20 22 11 12 1021.9 1022.0 0.0
31/01:30am 5.9 1.4 4.2 89 0.7 SE 17 19 9 10 1022.1 1022.2 0.0
31/01:00am 6.8 3.1 4.6 86 1.0 SSE 13 15 7 8 1022.3 1022.4 0.0
31/12:30am 7.4 3.1 5.2 86 1.0 SE 17 20 9 11 1022.5 1022.6 0.0
31/12:00am 8.0 4.9 5.6 85 1.1 SSE 11 13 6 7 1022.9 1023.0 0.0
 
Date/Time
CST
Temp
°C
App
Temp
°C
Dew
Point
Rel
Hum
%
Delta-T
°C
Wind Press
QNH
hPa
Press
MSL
hPa
Rain
since 9 am
mm
Dir
 
Spd
km/h
Gust
km/h
Spd
kts
Gust
kts
30/11:30pm 7.7 5.4 5.7 87 0.9 SE 7 9 4 5 1022.7 1022.8 0.0
30/11:00pm 8.3 5.4 6.6 89 0.8 SSE 11 13 6 7 1022.7 1022.8 0.0
30/10:30pm 8.3 5.5 7.1 92 0.6 SSE 11 13 6 7 1022.8 1022.9 0.0
30/10:00pm 8.8 5.4 7.7 93 0.5 S 15 17 8 9 1022.6 1022.7 0.0
30/09:30pm 9.3 7.2 8.2 93 0.5 S 9 11 5 6 1022.5 1022.6 0.0
30/09:00pm 9.7 7.7 8.6 93 0.5 SSW 9 11 5 6 1022.2 1022.3 0.0
30/08:30pm 10.2 7.5 9.0 92 0.6 S 13 15 7 8 1021.7 1021.8 0.0
30/08:00pm 11.0 9.3 9.8 92 0.6 SSW 9 11 5 6 1021.3 1021.4 0.0
30/07:30pm 11.4 9.0 10.0 91 0.7 SW 13 15 7 8 1021.0 1021.1 0.0
30/07:00pm 11.7 9.7 10.3 91 0.7 SW 11 15 6 8 1020.6 1020.7 0.0
30/06:30pm 12.1 9.4 10.5 90 0.8 SW 15 20 8 11 1020.3 1020.4 0.0
30/06:00pm 12.6 9.0 10.5 87 1.1 SW 20 30 11 16 1020.0 1020.1 0.0
30/05:30pm 13.4 8.9 11.3 87 1.1 WSW 26 37 14 20 1019.4 1019.5 0.0
30/05:00pm 13.8 10.0 11.3 85 1.3 W 22 28 12 15 1018.8 1018.8 0.0
30/04:30pm 13.7 10.4 11.7 88 1.1 WNW 20 24 11 13 1018.6 1018.6 0.0
30/04:00pm 14.4 11.2 11.9 85 1.3 WNW 20 28 11 15 1018.2 1018.2 0.0
30/03:30pm 14.6 10.6 11.7 83 1.6 WNW 24 28 13 15 1017.9 1017.9 0.0
30/03:00pm 14.5 9.6 11.3 81 1.7 WNW 28 33 15 18 1017.8 1017.8 0.0
30/02:30pm 14.1 8.5 11.4 84 1.4 WNW 32 39 17 21 1017.8 1017.8 0.0
30/02:00pm 14.3 8.7 10.3 77 2.1 WNW 30 39 16 21 1017.6 1017.6 0.0
30/01:30pm 14.1 7.3 9.1 72 2.5 WNW 35 48 19 26 1017.8 1017.8 0.0
30/01:26pm 14.2 7.9 8.8 70 2.7 WNW 32 43 17 23 1017.7 1017.7 0.0
30/01:00pm 14.2 7.6 7.7 65 3.2 NW 32 39 17 21 1017.6 1017.6 0.0
30/12:30pm 13.8 8.1 8.2 69 2.8 NNW 28 33 15 18 1017.9 1017.9 0.0
30/12:00pm 13.7 7.0 7.2 65 3.2 NNW 32 39 17 21 1018.2 1018.2 0.0
30/11:30am 13.3 5.9 6.9 65 3.1 NNW 35 44 19 24 1018.3 1018.3 0.0
30/11:00am 13.4 5.0 5.8 60 3.6 NNW 39 50 21 27 1018.5 1018.5 0.0
30/10:30am 13.3 4.1 5.5 59 3.7 N 43 54 23 29 1018.3 1018.3 0.0
30/10:00am 12.8 3.5 4.8 58 3.7 N 43 57 23 31 1017.9 1017.9 0.0
30/09:30am 12.2 3.2 4.7 60 3.4 N 41 50 22 27 1017.6 1017.6 0.0
30/09:00am 11.6 2.9 3.9 59 3.4 N 39 54 21 29 1017.9 1017.9 0.2
30/08:30am 10.9 2.1 3.5 60 3.2 N 39 52 21 28 1017.7 1017.7 0.2
30/08:00am 10.5 0.8 2.8 59 3.3 N 43 56 23 30 1017.6 1017.6 0.2
30/07:30am 10.6 0.7 1.9 55 3.7 N 43 57 23 31 1017.5 1017.5 0.2
30/07:00am 10.6 1.1 1.9 55 3.7 N 41 54 22 29 1017.4 1017.4 0.2
30/06:30am 10.6 1.6 2.2 56 3.6 N 39 52 21 28 1017.6 1017.6 0.2
30/06:00am 10.7 2.1 2.5 57 3.5 N 37 54 20 29 1017.5 1017.5 0.2
30/05:30am 10.8 1.4 2.1 55 3.7 N 41 52 22 28 1017.3 1017.3 0.2
30/05:02am 10.6 2.0 2.4 57 3.5 N 37 56 20 30 1017.5 1017.5 0.2
30/05:00am 10.7 1.7 2.3 56 3.6 N 39 56 21 30 1017.6 1017.6 0.2
30/04:30am 10.8 2.7 3.1 59 3.3 N 35 46 19 25 1018.8 1018.8 0.2
30/04:00am 10.5 2.2 4.2 65 2.8 N 37 46 20 25 1019.1 1019.2 0.2
30/03:30am 11.0 3.5 3.5 60 3.3 N 32 39 17 21 1019.6 1019.7 0.2
30/03:00am 10.9 3.3 3.7 61 3.2 N 33 43 18 23 1019.7 1019.8 0.2
30/02:30am 11.0 3.4 3.1 58 3.4 N 32 41 17 22 1020.2 1020.3 0.2
30/02:00am 10.6 3.9 3.4 61 3.2 N 28 37 15 20 1020.6 1020.7 0.2
30/01:30am 11.0 4.3 3.5 60 3.3 N 28 37 15 20 1021.0 1021.1 0.2
30/01:00am 10.6 3.6 4.3 65 2.8 N 30 39 16 21 1021.2 1021.3 0.2
30/12:30am 9.9 4.2 4.7 70 2.3 N 24 30 13 16 1021.4 1021.5 0.2
30/12:00am 10.5 4.1 5.3 70 2.4 N 28 35 15 19 1021.7 1021.8 0.2
 
Date/Time
CST
Temp
°C
App
Temp
°C
Dew
Point
Rel
Hum
%
Delta-T
°C
Wind Press
QNH
hPa
Press
MSL
hPa
Rain
since 9 am
mm
Dir
 
Spd
km/h
Gust
km/h
Spd
kts
Gust
kts
29/11:30pm 10.4 5.2 5.6 72 2.2 N 22 30 12 16 1022.1 1022.2 0.2
29/11:00pm 10.3 4.8 5.7 73 2.1 N 24 32 13 17 1022.4 1022.5 0.2
29/10:30pm 9.5 4.6 5.3 75 1.9 N 20 26 11 14 1022.8 1022.9 0.2
29/10:00pm 10.0 3.9 5.0 71 2.3 N 26 35 14 19 1023.0 1023.1 0.2
29/09:30pm 10.0 4.2 4.6 69 2.4 N 24 33 13 18 1023.3 1023.4 0.2
29/09:00pm 10.0 3.5 4.6 69 2.4 N 28 33 15 18 1023.4 1023.5 0.2
29/08:30pm 9.5 3.0 4.7 72 2.1 N 28 35 15 19 1023.3 1023.4 0.2
29/08:00pm 8.4 2.5 3.8 73 2.0 NNE 24 28 13 15 1023.7 1023.8 0.2
29/07:30pm 8.2 2.7 3.9 74 1.9 NNE 22 28 12 15 1024.0 1024.1 0.2
29/07:00pm 8.4 3.3 4.0 74 1.9 NNE 20 24 11 13 1024.0 1024.1 0.2
29/06:30pm 8.7 3.6 3.9 72 2.1 N 20 24 11 13 1023.9 1024.0 0.2
29/06:00pm 10.1 4.7 4.5 68 2.5 N 22 26 12 14 1023.9 1024.0 0.2
29/05:30pm 11.1 5.8 4.8 65 2.8 N 22 28 12 15 1023.9 1024.0 0.2
29/05:00pm 11.5 5.4 4.9 64 3.0 N 26 32 14 17 1023.9 1024.0 0.2
29/04:30pm 12.2 4.8 4.2 58 3.6 N 32 39 17 21 1023.8 1023.9 0.2
29/04:00pm 12.7 6.2 4.9 59 3.6 N 28 35 15 19 1024.3 1024.4 0.2
29/03:30pm 12.6 5.2 4.1 56 3.8 N 32 39 17 21 1024.3 1024.4 0.2
29/03:00pm 13.4 5.9 4.6 55 4.0 N 33 43 18 23 1024.6 1024.7 0.2
29/02:30pm 13.6 5.7 4.5 54 4.2 N 35 44 19 24 1025.3 1025.4 0.2
29/02:00pm 13.8 6.0 4.7 54 4.2 N 35 44 19 24 1025.5 1025.6 0.2
29/01:30pm 13.6 6.1 4.2 53 4.3 N 33 43 18 23 1026.0 1026.1 0.0
29/01:00pm 12.7 6.4 7.4 70 2.6 N 30 37 16 20 1026.8 1026.9 0.0

Other Formats:

Comma delimited format used in spreadsheet applications
http://www.bom.gov.au/fwo/IDS60801/IDS60801.95659.axf

JavaScript Object Notation format (JSON) in row-major order
http://www.bom.gov.au/fwo/IDS60801/IDS60801.95659.json